createdAt,value
2023-05-09T00:01:08.635Z,17.13
2023-05-09T00:03:36.588Z,17.00
2023-05-09T00:06:04.527Z,16.87
2023-05-09T00:08:32.490Z,16.86
2023-05-09T00:11:00.376Z,17.15
2023-05-09T00:13:28.635Z,17.22
2023-05-09T00:15:57.149Z,17.44
2023-05-09T00:18:26.346Z,17.65
2023-05-09T00:20:54.164Z,17.71
2023-05-09T00:23:22.178Z,18.08
2023-05-09T00:25:49.926Z,18.22
2023-05-09T00:28:17.661Z,18.11
2023-05-09T00:30:45.920Z,17.94
2023-05-09T00:33:13.701Z,17.48
2023-05-09T00:35:42.883Z,17.59
2023-05-09T00:38:10.629Z,17.50
2023-05-09T00:40:38.447Z,17.53
2023-05-09T00:43:06.790Z,17.57
2023-05-09T00:45:35.308Z,17.37
2023-05-09T00:48:03.224Z,17.56
2023-05-09T00:50:32.069Z,17.57
2023-05-09T00:53:02.156Z,17.79
2023-05-09T00:55:30.946Z,17.94
2023-05-09T00:57:58.926Z,17.97
2023-05-09T01:00:27.025Z,18.11
2023-05-09T01:02:57.259Z,17.47
2023-05-09T01:05:44.424Z,16.83
2023-05-09T01:08:22.726Z,17.17
2023-05-09T01:11:02.052Z,16.79
2023-05-09T01:13:37.408Z,16.86
2023-05-09T01:16:09.481Z,16.84
2023-05-09T01:18:44.260Z,16.89
2023-05-09T01:21:19.613Z,16.99
2023-05-09T01:24:08.411Z,17.14
2023-05-09T01:26:46.188Z,17.06
2023-05-09T01:29:35.308Z,17.06
2023-05-09T01:32:05.858Z,17.11
2023-05-09T01:34:34.956Z,17.08
2023-05-09T01:37:05.750Z,17.39
2023-05-09T01:39:35.827Z,17.13
2023-05-09T01:42:05.656Z,16.88
2023-05-09T01:44:38.367Z,16.85
2023-05-09T01:47:07.751Z,16.78
2023-05-09T01:49:37.504Z,16.54
2023-05-09T01:52:10.231Z,16.47
2023-05-09T01:54:40.528Z,16.23
2023-05-09T01:57:09.364Z,16.07
2023-05-09T01:59:43.891Z,15.88
2023-05-09T02:02:12.682Z,15.89
2023-05-09T02:04:42.728Z,16.01
2023-05-09T02:07:12.440Z,16.23
2023-05-09T02:09:40.719Z,16.58
2023-05-09T02:12:08.690Z,16.81
2023-05-09T02:14:37.889Z,17.03
2023-05-09T02:17:07.013Z,17.01
2023-05-09T02:19:35.524Z,17.01
2023-05-09T02:22:04.770Z,17.16
2023-05-09T02:24:35.078Z,17.14
2023-05-09T02:27:04.489Z,17.15
2023-05-09T02:29:40.342Z,16.95
2023-05-09T02:32:13.701Z,16.50
2023-05-09T02:34:42.931Z,16.31
2023-05-09T02:37:11.531Z,16.07
2023-05-09T02:39:39.864Z,15.79
2023-05-09T02:42:08.937Z,15.72
2023-05-09T02:44:37.218Z,15.29
2023-05-09T02:47:06.033Z,15.07
2023-05-09T02:49:35.610Z,15.27
2023-05-09T02:52:05.559Z,15.82
2023-05-09T02:54:33.413Z,15.81
2023-05-09T02:57:01.216Z,16.05
2023-05-09T02:59:29.166Z,16.17
2023-05-09T03:01:59.455Z,16.35
2023-05-09T03:04:27.405Z,16.24
2023-05-09T03:06:56.536Z,15.82
2023-05-09T03:09:27.269Z,16.10
2023-05-09T03:11:56.901Z,16.14
2023-05-09T03:14:24.941Z,16.24
2023-05-09T03:16:53.026Z,16.18
2023-05-09T03:19:29.291Z,16.22
2023-05-09T03:21:58.522Z,15.93
2023-05-09T03:24:28.142Z,15.91
2023-05-09T03:26:56.067Z,15.99
2023-05-09T03:29:23.917Z,16.22
2023-05-09T03:31:51.881Z,16.41
2023-05-09T03:34:19.679Z,16.69
2023-05-09T03:36:47.409Z,16.91
2023-05-09T03:39:17.802Z,17.11
2023-05-09T03:41:49.142Z,17.11
2023-05-09T03:44:17.004Z,17.26
2023-05-09T03:46:44.895Z,17.40
2023-05-09T03:49:13.566Z,17.56
2023-05-09T03:51:42.278Z,17.23
2023-05-09T03:54:14.757Z,17.09
2023-05-09T03:56:44.201Z,16.99
2023-05-09T03:59:12.050Z,17.32
2023-05-09T04:01:40.919Z,17.01
2023-05-09T04:04:09.607Z,16.68
2023-05-09T04:06:37.990Z,16.74
2023-05-09T04:09:07.976Z,16.91
2023-05-09T04:11:35.859Z,16.61
2023-05-09T04:14:07.335Z,16.45
2023-05-09T04:16:37.220Z,16.40
2023-05-09T04:19:07.070Z,16.42
2023-05-09T04:21:36.537Z,16.20
2023-05-09T04:24:05.807Z,16.46
2023-05-09T04:26:43.358Z,16.23
2023-05-09T04:29:16.073Z,16.30
2023-05-09T04:31:49.035Z,16.12
2023-05-09T04:34:17.499Z,15.86
2023-05-09T04:36:45.667Z,16.16
2023-05-09T04:39:13.850Z,16.17
2023-05-09T04:41:49.890Z,16.09
2023-05-09T04:44:19.839Z,15.82
2023-05-09T04:46:47.753Z,15.44
2023-05-09T04:49:15.629Z,15.35
2023-05-09T04:51:43.409Z,15.52
2023-05-09T04:54:11.428Z,15.62
2023-05-09T04:56:41.286Z,15.83
2023-05-09T04:59:09.116Z,15.89
2023-05-09T05:01:38.479Z,15.63
2023-05-09T05:04:06.540Z,15.95
2023-05-09T05:06:34.520Z,15.81
2023-05-09T05:09:02.444Z,15.71
2023-05-09T05:11:30.172Z,15.75
2023-05-09T05:13:58.402Z,16.01
2023-05-09T05:16:26.311Z,15.98
2023-05-09T05:18:55.687Z,16.31
2023-05-09T05:21:24.012Z,16.32
2023-05-09T05:23:51.814Z,16.57
2023-05-09T05:26:21.018Z,16.85
2023-05-09T05:28:49.474Z,16.98
2023-05-09T05:31:17.421Z,16.98
2023-05-09T05:33:45.375Z,16.90
2023-05-09T05:36:14.577Z,17.00
2023-05-09T05:38:43.215Z,16.89
2023-05-09T05:41:11.264Z,16.43
2023-05-09T05:43:40.622Z,16.38
2023-05-09T05:46:08.972Z,16.37
2023-05-09T05:48:36.898Z,16.34
2023-05-09T05:51:04.801Z,16.30
2023-05-09T05:53:34.925Z,16.27
2023-05-09T05:56:02.873Z,16.18
2023-05-09T05:58:32.609Z,16.33
2023-05-09T06:01:00.856Z,16.32
2023-05-09T06:03:28.833Z,16.42
2023-05-09T06:06:01.016Z,16.65
2023-05-09T06:08:31.634Z,16.54
2023-05-09T06:11:01.849Z,17.03
2023-05-09T06:13:29.712Z,16.82
2023-05-09T06:16:15.070Z,17.08
2023-05-09T06:18:46.256Z,17.21
2023-05-09T06:21:14.143Z,17.64
2023-05-09T06:23:56.941Z,17.72
2023-05-09T06:26:31.196Z,17.78
2023-05-09T06:28:59.123Z,17.77
2023-05-09T06:31:44.717Z,18.26
2023-05-09T06:34:39.085Z,17.86
2023-05-09T06:37:07.196Z,17.79
2023-05-09T06:39:35.083Z,17.81
2023-05-09T06:42:04.345Z,17.97
2023-05-09T06:44:33.872Z,18.13
2023-05-09T06:47:01.823Z,17.70
2023-05-09T06:49:29.670Z,17.92
2023-05-09T06:51:57.555Z,18.14
2023-05-09T06:54:25.443Z,17.96
2023-05-09T06:56:53.477Z,18.03
2023-05-09T06:59:22.672Z,18.19
2023-05-09T07:01:50.570Z,18.43
2023-05-09T07:04:18.446Z,18.68
2023-05-09T07:06:46.363Z,18.49
2023-05-09T07:09:15.325Z,18.47
2023-05-09T07:11:43.299Z,18.53
2023-05-09T07:14:11.140Z,18.56
2023-05-09T07:16:40.352Z,18.60
2023-05-09T07:19:08.242Z,18.71
2023-05-09T07:21:36.062Z,18.80
2023-05-09T07:24:03.924Z,18.76
2023-05-09T07:26:31.914Z,18.79
2023-05-09T07:28:59.880Z,19.15
2023-05-09T07:31:27.741Z,19.45
2023-05-09T07:33:56.969Z,19.72
2023-05-09T07:36:24.858Z,19.70
2023-05-09T07:38:53.505Z,19.76
2023-05-09T07:41:22.357Z,19.76
2023-05-09T07:43:50.170Z,19.41
2023-05-09T07:46:18.199Z,19.82
2023-05-09T07:48:46.096Z,19.65
2023-05-09T07:51:15.636Z,20.00
2023-05-09T07:53:43.461Z,19.86
2023-05-09T07:56:13.593Z,20.60
2023-05-09T07:58:41.398Z,21.12
2023-05-09T08:01:09.173Z,21.73
2023-05-09T08:03:37.055Z,21.37
2023-05-09T08:06:05.226Z,21.08
2023-05-09T08:08:34.556Z,20.62
2023-05-09T08:11:02.359Z,20.32
2023-05-09T08:13:30.242Z,20.21
2023-05-09T08:15:58.359Z,19.99
2023-05-09T08:18:26.543Z,20.07
2023-05-09T08:20:54.401Z,20.29
2023-05-09T08:23:22.205Z,20.98
2023-05-09T08:25:54.112Z,20.95
2023-05-09T08:28:24.123Z,21.51
2023-05-09T08:30:52.200Z,21.84
2023-05-09T08:33:20.227Z,22.40
2023-05-09T08:35:51.785Z,22.60
2023-05-09T08:38:20.320Z,22.45
2023-05-09T08:40:48.712Z,22.76
2023-05-09T08:43:19.226Z,22.52
2023-05-09T08:45:49.621Z,21.97
2023-05-09T08:48:18.131Z,23.08
2023-05-09T08:50:46.333Z,22.58
2023-05-09T08:53:14.759Z,23.80
2023-05-09T08:55:42.926Z,24.28
2023-05-09T08:58:11.019Z,24.23
2023-05-09T09:00:42.322Z,24.31
2023-05-09T09:03:10.206Z,23.13
2023-05-09T09:05:42.218Z,23.65
2023-05-09T09:08:11.826Z,22.59
2023-05-09T09:10:42.183Z,23.55
2023-05-09T09:13:12.384Z,23.96
2023-05-09T09:15:44.086Z,24.39
2023-05-09T09:18:13.928Z,24.99
2023-05-09T09:20:46.049Z,24.10
2023-05-09T09:23:16.225Z,23.27
2023-05-09T09:25:47.191Z,23.06
2023-05-09T09:28:15.009Z,24.35
2023-05-09T09:30:49.174Z,24.45
2023-05-09T09:33:21.300Z,24.32
2023-05-09T09:35:50.948Z,24.76
2023-05-09T09:38:19.726Z,24.36
2023-05-09T09:40:53.904Z,23.51
2023-05-09T09:43:21.876Z,24.06
2023-05-09T09:45:51.695Z,24.95
2023-05-09T09:48:19.706Z,25.21
2023-05-09T09:50:48.913Z,25.06
2023-05-09T09:53:16.764Z,26.03
2023-05-09T09:55:51.928Z,26.13
2023-05-09T09:58:21.878Z,25.78
2023-05-09T10:01:05.733Z,25.51
2023-05-09T10:03:37.237Z,26.08
2023-05-09T10:06:06.682Z,26.21
2023-05-09T10:08:34.437Z,27.12
2023-05-09T10:11:02.766Z,26.01
2023-05-09T10:13:30.764Z,24.74
2023-05-09T10:16:00.688Z,24.02
2023-05-09T10:18:31.136Z,24.07
2023-05-09T10:21:03.548Z,25.21
2023-05-09T10:23:32.686Z,24.44
2023-05-09T10:26:08.256Z,24.98
2023-05-09T10:28:39.837Z,23.85
2023-05-09T10:31:14.618Z,24.05
2023-05-09T10:33:47.086Z,23.58
2023-05-09T10:36:17.625Z,23.25
2023-05-09T10:38:46.134Z,23.55
2023-05-09T10:41:15.584Z,23.63
2023-05-09T10:43:44.167Z,24.32
2023-05-09T10:46:13.995Z,25.69
2023-05-09T10:48:42.774Z,25.05
2023-05-09T10:51:11.471Z,24.99
2023-05-09T10:53:44.540Z,24.71
2023-05-09T10:56:23.987Z,25.86
2023-05-09T10:58:51.990Z,26.26
2023-05-09T11:01:34.517Z,26.98
2023-05-09T11:04:03.930Z,26.04
2023-05-09T11:06:49.288Z,25.63
2023-05-09T11:09:28.387Z,25.59
2023-05-09T11:11:58.629Z,25.54
2023-05-09T11:14:34.435Z,25.97
2023-05-09T11:17:06.495Z,26.70
2023-05-09T11:19:38.902Z,26.90
2023-05-09T11:22:14.996Z,25.73
2023-05-09T11:24:47.321Z,25.62
2023-05-09T11:27:21.239Z,24.88
2023-05-09T11:29:52.632Z,24.41
2023-05-09T11:32:22.968Z,24.51
2023-05-09T11:34:51.155Z,24.93
2023-05-09T11:37:19.256Z,25.80
2023-05-09T11:39:58.151Z,26.03
2023-05-09T11:42:26.880Z,26.06
2023-05-09T11:44:55.125Z,25.83
2023-05-09T11:47:24.909Z,26.34
2023-05-09T11:49:53.011Z,26.24
2023-05-09T11:52:21.784Z,27.35
2023-05-09T11:54:50.189Z,26.06
2023-05-09T11:57:18.263Z,25.24
2023-05-09T11:59:46.471Z,27.48
2023-05-09T12:02:15.211Z,28.42
2023-05-09T12:04:44.588Z,28.30
2023-05-09T12:07:16.587Z,26.99
2023-05-09T12:09:44.825Z,26.82
2023-05-09T12:12:14.392Z,27.98
2023-05-09T12:14:42.773Z,28.86
2023-05-09T12:17:10.687Z,29.85
2023-05-09T12:19:38.357Z,28.03
2023-05-09T12:22:07.593Z,27.16
2023-05-09T12:24:37.557Z,27.48
2023-05-09T12:27:07.880Z,27.03
2023-05-09T12:29:36.369Z,27.25
2023-05-09T12:32:04.402Z,27.10
2023-05-09T12:34:33.443Z,27.40
2023-05-09T12:37:03.596Z,27.98
2023-05-09T12:39:33.040Z,28.37
2023-05-09T12:42:02.338Z,28.24
2023-05-09T12:44:30.491Z,28.46
2023-05-09T12:47:00.015Z,29.69
2023-05-09T12:49:28.377Z,28.61
2023-05-09T12:51:58.427Z,27.89
2023-05-09T12:54:27.772Z,27.47
2023-05-09T12:56:59.117Z,27.40
2023-05-09T12:59:28.844Z,27.76
2023-05-09T13:01:58.805Z,28.34
2023-05-09T13:04:29.017Z,28.94
2023-05-09T13:06:59.875Z,29.26
2023-05-09T13:09:28.465Z,29.20
2023-05-09T13:11:57.673Z,28.26
2023-05-09T13:14:25.468Z,27.93
2023-05-09T13:16:53.410Z,27.84
2023-05-09T13:19:21.473Z,28.85
2023-05-09T13:21:49.593Z,28.21
2023-05-09T13:24:22.741Z,28.93
2023-05-09T13:26:51.020Z,28.86
2023-05-09T13:29:20.213Z,29.17
2023-05-09T13:31:48.194Z,27.42
2023-05-09T13:34:16.071Z,26.70
2023-05-09T13:36:43.897Z,26.99
2023-05-09T13:39:11.827Z,26.83
2023-05-09T13:41:39.651Z,26.23
2023-05-09T13:44:07.613Z,26.69
2023-05-09T13:46:37.198Z,26.07
2023-05-09T13:49:05.061Z,25.89
2023-05-09T13:51:33.804Z,26.10
2023-05-09T13:54:03.153Z,26.66
2023-05-09T13:56:30.956Z,26.93
2023-05-09T13:58:58.883Z,26.05
2023-05-09T14:01:27.023Z,25.62
2023-05-09T14:03:56.476Z,25.89
2023-05-09T14:06:24.317Z,24.70
2023-05-09T14:08:52.250Z,25.00
2023-05-09T14:11:20.862Z,25.47
2023-05-09T14:13:48.672Z,25.59
2023-05-09T14:16:16.752Z,24.76
2023-05-09T14:18:44.577Z,24.91
2023-05-09T14:21:13.937Z,25.10
2023-05-09T14:23:42.662Z,24.87
2023-05-09T14:26:10.473Z,24.38
2023-05-09T14:28:38.277Z,25.19
2023-05-09T14:31:06.272Z,24.66
2023-05-09T14:33:35.971Z,23.96
2023-05-09T14:36:04.245Z,23.94
2023-05-09T14:38:34.279Z,24.12
2023-05-09T14:41:02.713Z,23.94
2023-05-09T14:43:33.528Z,23.91
2023-05-09T14:46:01.242Z,23.96
2023-05-09T14:48:29.007Z,23.70
2023-05-09T14:50:57.047Z,23.38
2023-05-09T14:53:25.196Z,23.63
2023-05-09T14:55:54.343Z,24.12
2023-05-09T14:58:22.642Z,24.17
2023-05-09T15:00:50.724Z,24.30
2023-05-09T15:03:18.581Z,24.27
2023-05-09T15:05:46.372Z,24.68
2023-05-09T15:08:14.563Z,24.07
2023-05-09T15:10:42.469Z,24.46
2023-05-09T15:13:11.613Z,24.48
2023-05-09T15:15:40.507Z,24.20
2023-05-09T15:18:10.067Z,24.45
2023-05-09T15:20:38.071Z,24.02
2023-05-09T15:23:06.704Z,24.26
2023-05-09T15:25:34.646Z,22.18
2023-05-09T15:30:33.423Z,20.60
2023-05-09T15:33:01.764Z,20.51
2023-05-09T15:35:29.731Z,20.85
2023-05-09T15:37:57.721Z,21.10
2023-05-09T15:40:25.893Z,21.13
2023-05-09T15:45:21.563Z,20.49
2023-05-09T15:47:50.832Z,20.59
2023-05-09T15:50:19.044Z,20.91
2023-05-09T15:52:46.928Z,21.47
2023-05-09T15:55:14.755Z,21.30
2023-05-09T15:57:42.617Z,21.01
2023-05-09T16:00:12.301Z,21.48
2023-05-09T16:02:41.633Z,21.80
2023-05-09T16:05:11.098Z,22.09
2023-05-09T16:07:39.060Z,22.99
2023-05-09T16:10:08.099Z,22.63
2023-05-09T16:12:36.332Z,22.58
2023-05-09T16:15:04.410Z,22.91
2023-05-09T16:17:32.486Z,22.43
2023-05-09T16:20:00.416Z,22.29
2023-05-09T16:22:29.543Z,21.95
2023-05-09T16:24:59.606Z,22.89
2023-05-09T16:27:27.426Z,22.86
2023-05-09T16:29:55.157Z,21.97
2023-05-09T16:32:22.950Z,22.24
2023-05-09T16:34:50.657Z,21.47
2023-05-09T16:37:19.116Z,21.03
2023-05-09T16:39:48.344Z,20.83
2023-05-09T16:42:16.030Z,20.57
2023-05-09T16:44:43.901Z,20.49
2023-05-09T16:47:11.810Z,20.16
2023-05-09T16:49:39.527Z,19.91
2023-05-09T16:52:07.374Z,20.06
2023-05-09T16:54:35.177Z,20.32
2023-05-09T16:57:04.512Z,20.18
2023-05-09T16:59:32.865Z,20.00
2023-05-09T17:02:00.680Z,19.64
2023-05-09T17:04:31.658Z,19.95
2023-05-09T17:06:59.444Z,19.70
2023-05-09T17:09:27.954Z,19.59
2023-05-09T17:11:55.719Z,19.46
2023-05-09T17:14:24.820Z,19.29
2023-05-09T17:16:53.043Z,19.62
2023-05-09T17:19:23.212Z,19.65
2023-05-09T17:21:50.954Z,19.76
2023-05-09T17:24:18.767Z,19.41
2023-05-09T17:26:46.802Z,18.88
2023-05-09T17:29:15.754Z,19.32
2023-05-09T17:31:44.951Z,19.25
2023-05-09T17:34:12.719Z,19.20
2023-05-09T17:36:40.505Z,18.72
2023-05-09T17:39:08.286Z,18.55
2023-05-09T17:41:36.066Z,18.64
2023-05-09T17:44:04.032Z,18.28
2023-05-09T17:46:32.903Z,17.72
2023-05-09T17:49:02.060Z,17.76
2023-05-09T17:51:29.859Z,17.44
2023-05-09T17:53:57.654Z,17.45
2023-05-09T17:56:25.585Z,17.39
2023-05-09T17:58:53.738Z,17.37
2023-05-09T18:01:23.921Z,17.19
2023-05-09T18:03:51.910Z,17.45
2023-05-09T18:06:21.149Z,17.32
2023-05-09T18:08:49.155Z,17.45
2023-05-09T18:11:16.954Z,17.30
2023-05-09T18:13:44.811Z,17.46
2023-05-09T18:16:12.643Z,17.12
2023-05-09T18:18:40.489Z,17.03
2023-05-09T18:21:09.530Z,17.40
2023-05-09T18:23:38.924Z,16.98
2023-05-09T18:26:06.665Z,16.95
2023-05-09T18:28:39.304Z,16.98
2023-05-09T18:31:09.404Z,17.33
2023-05-09T18:33:39.030Z,17.43
2023-05-09T18:36:08.859Z,17.59
2023-05-09T18:38:39.295Z,17.31
2023-05-09T18:41:08.462Z,17.08
2023-05-09T18:43:38.668Z,16.73
2023-05-09T18:46:07.513Z,16.76
2023-05-09T18:48:35.478Z,16.78
2023-05-09T18:51:03.344Z,16.70
2023-05-09T18:53:31.099Z,16.71
2023-05-09T18:56:02.183Z,16.83
2023-05-09T18:58:30.844Z,16.59
2023-05-09T19:00:58.813Z,16.50
2023-05-09T19:03:27.185Z,16.52
2023-05-09T19:05:59.162Z,16.38
2023-05-09T19:08:29.201Z,16.97
2023-05-09T19:10:57.085Z,16.55
2023-05-09T19:13:26.480Z,16.70
2023-05-09T19:15:54.352Z,16.62
2023-05-09T19:18:22.080Z,16.40
2023-05-09T19:20:52.125Z,16.26
2023-05-09T19:23:23.289Z,16.54
2023-05-09T19:25:53.864Z,16.23
2023-05-09T19:28:22.919Z,16.76
2023-05-09T19:30:52.162Z,16.80
2023-05-09T19:33:20.420Z,16.71
2023-05-09T19:35:48.196Z,17.07
2023-05-09T19:38:16.958Z,16.69
2023-05-09T19:40:44.890Z,16.83
2023-05-09T19:43:12.745Z,16.88
2023-05-09T19:45:40.532Z,17.27
2023-05-09T19:48:15.074Z,16.59
2023-05-09T19:50:45.104Z,17.22
2023-05-09T19:53:12.925Z,16.72
2023-05-09T19:55:41.097Z,16.58
2023-05-09T19:58:08.890Z,16.54
2023-05-09T20:00:38.781Z,16.55
2023-05-09T20:03:10.808Z,16.86
2023-05-09T20:05:38.859Z,17.00
2023-05-09T20:08:06.826Z,16.69
2023-05-09T20:10:34.680Z,16.75
2023-05-09T20:13:04.335Z,16.96
2023-05-09T20:15:32.215Z,16.95
2023-05-09T20:18:03.338Z,17.40
2023-05-09T20:20:35.637Z,17.24
2023-05-09T20:23:03.433Z,17.65
2023-05-09T20:25:31.534Z,17.79
2023-05-09T20:27:59.304Z,17.57
2023-05-09T20:30:27.225Z,17.01
2023-05-09T20:32:55.056Z,17.10
2023-05-09T20:35:22.940Z,17.22
2023-05-09T20:37:52.126Z,17.41
2023-05-09T20:40:20.161Z,16.73
2023-05-09T20:42:47.861Z,16.35
2023-05-09T20:45:15.808Z,16.07
2023-05-09T20:47:43.693Z,15.96
2023-05-09T20:50:12.039Z,16.22
2023-05-09T20:52:39.896Z,16.10
2023-05-09T20:55:10.020Z,16.13
2023-05-09T20:57:37.737Z,16.61
2023-05-09T21:00:07.547Z,16.87
2023-05-09T21:02:35.768Z,17.37
2023-05-09T21:05:03.799Z,17.63
2023-05-09T21:07:31.588Z,18.05
2023-05-09T21:09:59.490Z,17.45
2023-05-09T21:12:30.488Z,18.05
2023-05-09T21:14:58.249Z,18.22
2023-05-09T21:17:26.118Z,18.16
2023-05-09T21:19:54.125Z,18.12
2023-05-09T21:22:21.910Z,17.66
2023-05-09T21:24:50.771Z,16.91
2023-05-09T21:27:18.607Z,16.54
2023-05-09T21:29:49.303Z,17.33
2023-05-09T21:32:17.199Z,17.75
2023-05-09T21:34:45.106Z,17.62
2023-05-09T21:37:12.945Z,16.82
2023-05-09T21:39:43.339Z,17.83
2023-05-09T21:42:11.153Z,18.14
2023-05-09T21:44:38.838Z,18.19
2023-05-09T21:47:08.259Z,18.01
2023-05-09T21:49:36.139Z,17.07
2023-05-09T21:52:04.201Z,17.48
2023-05-09T21:54:31.927Z,17.70
2023-05-09T21:56:59.815Z,17.33
2023-05-09T21:59:28.131Z,16.53
2023-05-09T22:01:55.961Z,16.58
2023-05-09T22:04:25.087Z,16.28
2023-05-09T22:06:52.797Z,15.91
2023-05-09T22:09:20.912Z,16.03
2023-05-09T22:11:48.576Z,15.75
2023-05-09T22:14:16.391Z,15.97
2023-05-09T22:16:44.197Z,15.59
2023-05-09T22:19:12.216Z,15.98
2023-05-09T22:21:41.394Z,15.44
2023-05-09T22:24:09.343Z,15.58
2023-05-09T22:26:37.158Z,16.27
2023-05-09T22:29:04.997Z,16.42
2023-05-09T22:31:32.884Z,16.45
2023-05-09T22:34:03.587Z,16.24
2023-05-09T22:36:32.082Z,16.39
2023-05-09T22:39:01.460Z,15.75
2023-05-09T22:41:29.303Z,15.11
2023-05-09T22:43:57.288Z,14.98
2023-05-09T22:46:25.117Z,14.80
2023-05-09T22:48:52.950Z,14.77
2023-05-09T22:51:20.729Z,15.00
2023-05-09T22:53:48.479Z,14.66
2023-05-09T22:56:17.598Z,14.73
2023-05-09T22:58:45.351Z,14.96
2023-05-09T23:01:13.108Z,14.73
2023-05-09T23:03:44.204Z,14.98
2023-05-09T23:06:12.275Z,14.56
2023-05-09T23:08:40.088Z,14.61
2023-05-09T23:11:07.842Z,14.54
2023-05-09T23:13:37.109Z,14.48
2023-05-09T23:16:05.053Z,14.38
2023-05-09T23:18:32.841Z,14.40
2023-05-09T23:21:00.634Z,14.25
2023-05-09T23:23:28.838Z,14.09
2023-05-09T23:25:56.687Z,14.33
2023-05-09T23:28:25.318Z,14.06
2023-05-09T23:30:55.097Z,14.29
2023-05-09T23:33:22.935Z,14.21
2023-05-09T23:35:50.802Z,14.28
2023-05-09T23:38:18.601Z,14.14
2023-05-09T23:40:46.913Z,14.29
2023-05-09T23:43:15.022Z,14.21
2023-05-09T23:45:42.767Z,13.89
2023-05-09T23:48:11.850Z,14.06
2023-05-09T23:50:39.667Z,14.07
2023-05-09T23:53:07.491Z,13.77
2023-05-09T23:55:35.206Z,13.79
2023-05-09T23:58:03.335Z,13.67
